createdAt,value
2016-02-29T00:00:42.105Z,0
2016-02-29T00:01:42.092Z,0
2016-02-29T00:02:42.095Z,0
2016-02-29T00:03:42.082Z,0
2016-02-29T00:04:42.100Z,0
2016-02-29T00:05:41.822Z,0
2016-02-29T00:06:42.075Z,0
2016-02-29T00:07:42.077Z,0
2016-02-29T00:08:42.111Z,0
2016-02-29T00:09:41.911Z,0
2016-02-29T00:10:42.086Z,0
2016-02-29T00:11:41.901Z,0
2016-02-29T00:12:42.075Z,0
2016-02-29T00:13:41.922Z,0
2016-02-29T00:14:42.034Z,0
2016-02-29T00:15:42.083Z,0
2016-02-29T00:16:42.039Z,0
2016-02-29T00:17:42.058Z,0
2016-02-29T00:18:42.029Z,0
2016-02-29T00:19:42.110Z,0
2016-02-29T00:20:42.050Z,0
2016-02-29T00:21:41.911Z,0
2016-02-29T00:22:42.008Z,0
2016-02-29T00:23:42.058Z,0
2016-02-29T00:24:42.029Z,0
2016-02-29T00:25:42.016Z,0
2016-02-29T00:26:42.003Z,0
2016-02-29T00:27:42.022Z,0
2016-02-29T00:28:42.009Z,0
2016-02-29T00:29:42.048Z,0
2016-02-29T00:30:41.988Z,0
2016-02-29T00:31:41.990Z,0
2016-02-29T00:32:41.978Z,0
2016-02-29T00:33:41.964Z,0
2016-02-29T00:34:41.967Z,0
2016-02-29T00:35:41.986Z,0
2016-02-29T00:36:41.972Z,0
2016-02-29T00:37:41.975Z,0
2016-02-29T00:38:41.978Z,0
2016-02-29T00:39:41.964Z,0
2016-02-29T00:40:41.967Z,0
2016-02-29T00:41:42.017Z,0
2016-02-29T00:42:41.942Z,0
2016-02-29T00:43:41.929Z,0
2016-02-29T00:44:41.963Z,0
2016-02-29T00:45:41.950Z,0
2016-02-29T00:46:41.952Z,0
2016-02-29T00:47:41.940Z,0
2016-02-29T00:48:41.911Z,0
2016-02-29T00:49:41.913Z,0
2016-02-29T00:50:41.916Z,0
2016-02-29T00:51:41.904Z,0
2016-02-29T00:52:41.906Z,0
2016-02-29T00:53:41.909Z,0
2016-02-29T00:54:41.912Z,0
2016-02-29T00:55:41.898Z,0
2016-02-29T00:56:41.917Z,0
2016-02-29T00:57:41.904Z,0
2016-02-29T00:58:41.907Z,0
2016-02-29T00:59:41.737Z,0
2016-02-29T01:00:41.881Z,0
2016-02-29T01:01:41.898Z,0
2016-02-29T01:02:41.886Z,0
2016-02-29T01:03:41.873Z,0
2016-02-29T01:04:41.861Z,0
2016-02-29T01:05:41.878Z,0
2016-02-29T01:06:41.866Z,0
2016-02-29T01:07:41.884Z,0
2016-02-29T01:08:41.855Z,0
2016-02-29T01:09:44.874Z,0
2016-02-29T01:10:41.829Z,0
2016-02-29T01:11:41.847Z,0
2016-02-29T01:12:41.866Z,0
2016-02-29T01:13:41.853Z,0
2016-02-29T01:14:41.825Z,0
2016-02-29T01:15:41.827Z,0
2016-02-29T01:16:41.814Z,0
2016-02-29T01:17:41.833Z,0
2016-02-29T01:18:41.820Z,0
2016-02-29T01:19:41.807Z,0
2016-02-29T01:20:41.793Z,0
2016-02-29T01:21:41.797Z,0
2016-02-29T01:22:41.815Z,0
2016-02-29T01:23:41.802Z,0
2016-02-29T01:24:41.790Z,0
2016-02-29T01:25:41.792Z,0
2016-02-29T01:26:41.810Z,0
2016-02-29T01:27:41.782Z,0
2016-02-29T01:28:41.785Z,0
2016-02-29T01:29:41.770Z,0
2016-02-29T01:30:41.805Z,0
2016-02-29T01:31:41.761Z,0
2016-02-29T01:32:41.748Z,0
2016-02-29T01:33:41.750Z,0
2016-02-29T01:34:41.582Z,0
2016-02-29T01:35:41.787Z,0
2016-02-29T01:36:41.743Z,0
2016-02-29T01:37:41.746Z,0
2016-02-29T01:38:41.748Z,0
2016-02-29T01:39:41.719Z,0
2016-02-29T01:40:41.769Z,0
2016-02-29T01:41:41.710Z,0
2016-02-29T01:42:41.744Z,0
2016-02-29T01:43:41.715Z,0
2016-02-29T01:44:41.749Z,0
2016-02-29T01:45:40.955Z,0
2016-02-29T01:46:41.724Z,0
2016-02-29T01:47:41.679Z,0
2016-02-29T01:48:41.697Z,0
2016-02-29T01:49:41.700Z,0
2016-02-29T01:50:41.687Z,0
2016-02-29T01:51:41.674Z,0
2016-02-29T01:52:41.552Z,0
2016-02-29T01:53:41.664Z,0
2016-02-29T01:54:41.667Z,0
2016-02-29T01:55:41.685Z,0
2016-02-29T01:56:41.657Z,0
2016-02-29T01:57:41.660Z,0
2016-02-29T01:58:41.646Z,0
2016-02-29T01:59:41.665Z,0
2016-02-29T02:00:41.649Z,0
2016-02-29T02:01:41.637Z,0
2016-02-29T02:02:41.594Z,0
2016-02-29T02:03:41.612Z,0
2016-02-29T02:04:41.569Z,0
2016-02-29T02:05:41.558Z,0
2016-02-29T02:06:41.367Z,0
2016-02-29T02:07:41.537Z,0
2016-02-29T02:08:41.378Z,0
2016-02-29T02:09:41.516Z,0
2016-02-29T02:10:41.529Z,0
2016-02-29T02:11:41.530Z,0
2016-02-29T02:12:41.531Z,0
2016-02-29T02:13:41.500Z,0
2016-02-29T02:14:41.517Z,0
2016-02-29T02:15:41.486Z,0
2016-02-29T02:16:41.488Z,0
2016-02-29T02:17:41.459Z,0
2016-02-29T02:18:41.461Z,0
2016-02-29T02:19:41.478Z,0
2016-02-29T02:20:41.450Z,0
2016-02-29T02:21:41.467Z,0
2016-02-29T02:22:41.440Z,0
2016-02-29T02:23:41.504Z,0
2016-02-29T02:24:41.445Z,0
2016-02-29T02:25:41.448Z,0
2016-02-29T02:26:41.481Z,0
2016-02-29T02:27:41.437Z,0
2016-02-29T02:28:41.455Z,0
2016-02-29T02:29:41.427Z,0
2016-02-29T02:30:41.413Z,0
2016-02-29T02:31:41.417Z,0
2016-02-29T02:32:41.420Z,0
2016-02-29T02:33:41.406Z,0
2016-02-29T02:34:41.409Z,0
2016-02-29T02:35:41.411Z,0
2016-02-29T02:36:41.399Z,0
2016-02-29T02:37:41.402Z,0
2016-02-29T02:38:41.388Z,0
2016-02-29T02:39:41.376Z,0
2016-02-29T02:40:41.394Z,0
2016-02-29T02:41:41.412Z,0
2016-02-29T02:42:41.368Z,0
2016-02-29T02:43:41.371Z,0
2016-02-29T02:44:41.374Z,0
2016-02-29T02:45:41.360Z,0
2016-02-29T02:46:41.348Z,0
2016-02-29T02:47:41.366Z,0
2016-02-29T02:48:41.353Z,0
2016-02-29T02:49:41.370Z,0
2016-02-29T02:50:41.374Z,0
2016-02-29T02:51:41.345Z,0
2016-02-29T02:52:41.332Z,0
2016-02-29T02:53:41.335Z,0
2016-02-29T02:54:41.306Z,0
2016-02-29T02:55:41.325Z,0
2016-02-29T02:56:41.422Z,0
2016-02-29T02:57:41.314Z,0
2016-02-29T02:58:41.318Z,0
2016-02-29T02:59:41.305Z,0
2016-02-29T03:00:41.323Z,0
2016-02-29T03:01:41.325Z,0
2016-02-29T03:02:41.297Z,0
2016-02-29T03:03:41.284Z,0
2016-02-29T03:04:41.334Z,0
2016-02-29T03:05:41.289Z,0
2016-02-29T03:06:40.527Z,0
2016-02-29T03:07:41.280Z,0
2016-02-29T03:08:41.282Z,0
2016-02-29T03:09:41.285Z,0
2016-02-29T03:10:41.272Z,0
2016-02-29T03:11:41.274Z,0
2016-02-29T03:12:41.105Z,0
2016-02-29T03:13:41.249Z,0
2016-02-29T03:14:41.266Z,0
2016-02-29T03:15:41.254Z,0
2016-02-29T03:16:41.272Z,0
2016-02-29T03:17:41.244Z,0
2016-02-29T03:18:41.262Z,0
2016-02-29T03:19:41.265Z,0
2016-02-29T03:20:41.236Z,0
2016-02-29T03:21:41.223Z,0
2016-02-29T03:22:41.225Z,0
2016-02-29T03:23:41.229Z,0
2016-02-29T03:24:41.231Z,0
2016-02-29T03:25:41.203Z,0
2016-02-29T03:26:41.205Z,0
2016-02-29T03:27:41.192Z,0
2016-02-29T03:28:41.195Z,0
2016-02-29T03:29:41.198Z,0
2016-02-29T03:30:41.185Z,0
2016-02-29T03:31:41.172Z,0
2016-02-29T03:32:41.175Z,0
2016-02-29T03:33:41.208Z,0
2016-02-29T03:34:41.181Z,0
2016-02-29T03:35:41.183Z,0
2016-02-29T03:36:41.170Z,0
2016-02-29T03:37:41.172Z,0
2016-02-29T03:38:41.175Z,0
2016-02-29T03:39:41.162Z,0
2016-02-29T03:40:41.149Z,0
2016-02-29T03:41:41.135Z,0
2016-02-29T03:42:41.154Z,0
2016-02-29T03:43:41.142Z,0
2016-02-29T03:44:41.129Z,0
2016-02-29T03:45:41.162Z,0
2016-02-29T03:46:41.149Z,0
2016-02-29T03:47:41.199Z,0
2016-02-29T03:48:41.202Z,0
2016-02-29T03:49:41.190Z,0
2016-02-29T03:50:41.113Z,0
2016-02-29T03:51:41.116Z,0
2016-02-29T03:52:41.118Z,0
2016-02-29T03:53:41.107Z,0
2016-02-29T03:54:41.109Z,0
2016-02-29T03:55:41.096Z,0
2016-02-29T03:56:41.114Z,0
2016-02-29T03:57:41.132Z,0
2016-02-29T03:58:41.104Z,0
2016-02-29T03:59:41.107Z,0
2016-02-29T04:00:41.109Z,0
2016-02-29T04:01:41.081Z,0
2016-02-29T04:02:41.084Z,0
2016-02-29T04:03:41.087Z,0
2016-02-29T04:04:41.089Z,0
2016-02-29T04:05:41.061Z,0
2016-02-29T04:06:41.064Z,0
2016-02-29T04:07:41.066Z,0
2016-02-29T04:08:41.099Z,0
2016-02-29T04:09:41.055Z,0
2016-02-29T04:10:41.058Z,0
2016-02-29T04:11:41.060Z,0
2016-02-29T04:12:41.047Z,0
2016-02-29T04:13:41.019Z,0
2016-02-29T04:14:41.038Z,0
2016-02-29T04:15:41.009Z,0
2016-02-29T04:16:41.043Z,0
2016-02-29T04:17:41.014Z,0
2016-02-29T04:18:41.033Z,0
2016-02-29T04:19:41.004Z,0
2016-02-29T04:20:41.023Z,0
2016-02-29T04:21:40.994Z,0
2016-02-29T04:22:40.981Z,0
2016-02-29T04:23:40.999Z,0
2016-02-29T04:24:40.845Z,0
2016-02-29T04:25:41.020Z,0
2016-02-29T04:26:40.976Z,0
2016-02-29T04:27:40.995Z,0
2016-02-29T04:28:40.967Z,0
2016-02-29T04:29:40.954Z,0
2016-02-29T04:30:41.004Z,0
2016-02-29T04:31:41.007Z,0
2016-02-29T04:32:40.962Z,0
2016-02-29T04:33:40.933Z,0
2016-02-29T04:34:40.935Z,0
2016-02-29T04:35:40.955Z,0
2016-02-29T04:36:40.941Z,0
2016-02-29T04:37:40.929Z,0
2016-02-29T04:38:40.931Z,0
2016-02-29T04:39:40.918Z,0
2016-02-29T04:40:40.952Z,0
2016-02-29T04:41:40.939Z,0
2016-02-29T04:42:40.911Z,0
2016-02-29T04:43:40.914Z,0
2016-02-29T04:44:40.900Z,0
2016-02-29T04:45:40.903Z,0
2016-02-29T04:46:40.906Z,0
2016-02-29T04:47:40.924Z,0
2016-02-29T04:48:40.896Z,0
2016-02-29T04:49:40.883Z,0
2016-02-29T04:50:40.886Z,0
2016-02-29T04:51:40.888Z,0
2016-02-29T04:52:40.922Z,0
2016-02-29T04:53:40.862Z,0
2016-02-29T04:54:40.864Z,0
2016-02-29T04:55:40.883Z,0
2016-02-29T04:56:40.870Z,0
2016-02-29T04:57:40.858Z,0
2016-02-29T04:58:40.860Z,0
2016-02-29T04:59:40.847Z,0
2016-02-29T05:00:40.849Z,0
2016-02-29T05:01:40.853Z,0
2016-02-29T05:02:40.871Z,0
2016-02-29T05:03:40.843Z,0
2016-02-29T05:04:40.845Z,0
2016-02-29T05:05:40.757Z,0
2016-02-29T05:06:40.838Z,0
2016-02-29T05:07:40.856Z,0
2016-02-29T05:08:40.812Z,0
2016-02-29T05:09:40.815Z,0
2016-02-29T05:10:40.817Z,0
2016-02-29T05:11:40.820Z,0
2016-02-29T05:12:40.806Z,0
2016-02-29T05:13:40.856Z,0
2016-02-29T05:14:40.860Z,0
2016-02-29T05:15:40.799Z,0
2016-02-29T05:16:40.802Z,0
2016-02-29T05:17:40.773Z,0
2016-02-29T05:18:40.776Z,0
2016-02-29T05:19:40.778Z,0
2016-02-29T05:20:40.781Z,0
2016-02-29T05:21:40.784Z,0
2016-02-29T05:22:40.786Z,0
2016-02-29T05:23:40.774Z,0
2016-02-29T05:24:40.777Z,0
2016-02-29T05:25:40.763Z,0
2016-02-29T05:26:40.766Z,0
2016-02-29T05:27:40.769Z,0
2016-02-29T05:28:40.741Z,0
2016-02-29T05:29:40.743Z,0
2016-02-29T05:30:40.746Z,0
2016-02-29T05:31:40.763Z,0
2016-02-29T05:32:40.735Z,0
2016-02-29T05:33:40.739Z,0
2016-02-29T05:34:40.741Z,0
2016-02-29T05:35:40.744Z,0
2016-02-29T05:36:40.715Z,0
2016-02-29T05:37:40.718Z,0
2016-02-29T05:38:40.690Z,0
2016-02-29T05:39:40.724Z,0
2016-02-29T05:40:40.710Z,0
2016-02-29T05:41:40.713Z,0
2016-02-29T05:42:40.684Z,0
2016-02-29T05:43:40.688Z,0
2016-02-29T05:44:40.673Z,0
2016-02-29T05:45:40.677Z,0
2016-02-29T05:46:40.712Z,0
2016-02-29T05:47:40.698Z,0
2016-02-29T05:48:40.685Z,0
2016-02-29T05:49:40.657Z,0
2016-02-29T05:50:40.659Z,0
2016-02-29T05:51:40.662Z,0
2016-02-29T05:52:40.696Z,0
2016-02-29T05:53:40.651Z,0
2016-02-29T05:54:40.639Z,0
2016-02-29T05:55:40.656Z,0
2016-02-29T05:56:40.659Z,0
2016-02-29T05:57:40.780Z,0
2016-02-29T05:58:40.530Z,0
2016-02-29T05:59:40.521Z,0
2016-02-29T06:00:41.317Z,0
2016-02-29T06:01:40.631Z,0
2016-02-29T06:02:40.619Z,0
2016-02-29T06:03:40.637Z,0
2016-02-29T06:04:40.608Z,0
2016-02-29T06:05:40.472Z,0
2016-02-29T06:06:40.599Z,0
2016-02-29T06:07:40.617Z,0
2016-02-29T06:08:40.588Z,0
2016-02-29T06:09:40.591Z,0
2016-02-29T06:10:40.594Z,0
2016-02-29T06:11:40.597Z,0
2016-02-29T06:12:40.568Z,0
2016-02-29T06:13:40.571Z,0
2016-02-29T06:14:40.557Z,0
2016-02-29T06:15:40.561Z,0
2016-02-29T06:16:40.579Z,0
2016-02-29T06:17:42.464Z,0
2016-02-29T06:18:40.561Z,0
2016-02-29T06:19:40.548Z,0
2016-02-29T06:20:40.519Z,0
2016-02-29T06:21:40.537Z,0
2016-02-29T06:22:40.556Z,0
2016-02-29T06:23:40.527Z,0
2016-02-29T06:24:40.530Z,0
2016-02-29T06:25:40.532Z,0
2016-02-29T06:26:40.520Z,0
2016-02-29T06:27:40.522Z,0
2016-02-29T06:28:40.493Z,0
2016-02-29T06:29:40.496Z,0
2016-02-29T06:30:40.515Z,0
2016-02-29T06:31:40.501Z,0
2016-02-29T06:32:40.489Z,0
2016-02-29T06:33:40.522Z,0
2016-02-29T06:34:40.494Z,0
2016-02-29T06:35:40.466Z,0
2016-02-29T06:36:40.484Z,5
2016-02-29T06:37:40.472Z,5
2016-02-29T06:38:40.474Z,5
2016-02-29T06:39:40.492Z,5
2016-02-29T06:40:40.557Z,5
2016-02-29T06:41:40.466Z,5
2016-02-29T06:42:40.453Z,5
2016-02-29T06:43:40.456Z,5
2016-02-29T06:44:40.474Z,5
2016-02-29T06:45:40.477Z,5
2016-02-29T06:46:40.432Z,5
2016-02-29T06:47:40.436Z,5
2016-02-29T06:48:40.422Z,5
2016-02-29T06:49:40.441Z,5
2016-02-29T06:50:40.459Z,5
2016-02-29T06:51:40.430Z,5
2016-02-29T06:52:40.418Z,5
2016-02-29T06:53:40.404Z,5
2016-02-29T06:54:40.423Z,5
2016-02-29T06:55:40.426Z,5
2016-02-29T06:56:40.398Z,10
2016-02-29T06:57:40.400Z,10
2016-02-29T06:58:40.403Z,10
2016-02-29T06:59:40.389Z,10
2016-02-29T07:00:40.393Z,10
2016-02-29T07:01:40.411Z,10
2016-02-29T07:02:40.382Z,10
2016-02-29T07:03:40.384Z,10
2016-02-29T07:04:40.372Z,10
2016-02-29T07:05:40.515Z,10
2016-02-29T07:06:40.361Z,10
2016-02-29T07:07:40.348Z,10
2016-02-29T07:08:40.351Z,10
2016-02-29T07:09:40.353Z,10
2016-02-29T07:10:40.341Z,10
2016-02-29T07:11:40.344Z,10
2016-02-29T07:12:40.346Z,10
2016-02-29T07:13:40.349Z,10
2016-02-29T07:14:40.367Z,10
2016-02-29T07:15:40.308Z,10
2016-02-29T07:16:40.310Z,10
2016-02-29T07:17:40.329Z,10
2016-02-29T07:18:40.316Z,10
2016-02-29T07:19:40.303Z,10
2016-02-29T07:20:40.321Z,10
2016-02-29T07:21:40.308Z,10
2016-02-29T07:22:40.295Z,10
2016-02-29T07:23:40.298Z,10
2016-02-29T07:24:40.301Z,10
2016-02-29T07:25:40.303Z,10
2016-02-29T07:26:40.275Z,10
2016-02-29T07:27:40.293Z,10
2016-02-29T07:28:40.265Z,10
2016-02-29T07:29:40.282Z,10
2016-02-29T07:30:40.270Z,10
2016-02-29T07:31:40.257Z,10
2016-02-29T07:32:40.275Z,10
2016-02-29T07:33:40.247Z,10
2016-02-29T07:34:40.250Z,10
2016-02-29T07:35:40.252Z,10
2016-02-29T07:36:40.255Z,10
2016-02-29T07:37:40.242Z,10
2016-02-29T07:38:40.260Z,10
2016-02-29T07:39:40.232Z,10
2016-02-29T07:40:40.234Z,10
2016-02-29T07:41:40.222Z,10
2016-02-29T07:42:40.208Z,10
2016-02-29T07:43:40.227Z,10
2016-02-29T07:44:40.230Z,15
2016-02-29T07:45:40.233Z,10
2016-02-29T07:46:40.219Z,10
2016-02-29T07:47:40.206Z,10
2016-02-29T07:48:40.194Z,10
2016-02-29T07:49:40.211Z,10
2016-02-29T07:50:40.199Z,10
2016-02-29T07:51:40.170Z,15
2016-02-29T07:52:40.188Z,15
2016-02-29T07:53:40.191Z,15
2016-02-29T07:54:40.179Z,15
2016-02-29T07:55:40.181Z,10
2016-02-29T07:56:40.184Z,15
2016-02-29T07:57:40.015Z,15
2016-02-29T07:58:40.018Z,10
2016-02-29T07:59:40.145Z,10
2016-02-29T08:00:40.163Z,10
2016-02-29T08:01:40.165Z,10
2016-02-29T08:02:40.137Z,10
2016-02-29T08:03:40.139Z,15
2016-02-29T08:04:40.126Z,10
2016-02-29T08:05:40.162Z,15
2016-02-29T08:06:40.132Z,15
2016-02-29T08:07:40.119Z,15
2016-02-29T08:08:40.122Z,15
2016-02-29T08:09:40.109Z,15
2016-02-29T08:10:40.112Z,15
2016-02-29T08:11:40.131Z,15
2016-02-29T08:12:40.164Z,15
2016-02-29T08:13:40.105Z,15
2016-02-29T08:14:40.122Z,15
2016-02-29T08:15:40.110Z,15
2016-02-29T08:16:40.096Z,15
2016-02-29T08:17:40.083Z,15
2016-02-29T08:18:40.086Z,15
2016-02-29T08:19:40.105Z,15
2016-02-29T08:20:40.123Z,15
2016-02-29T08:21:40.079Z,20
2016-02-29T08:22:40.081Z,20
2016-02-29T08:23:40.085Z,15
2016-02-29T08:24:40.088Z,15
2016-02-29T08:25:40.058Z,15
2016-02-29T08:26:40.093Z,20
2016-02-29T08:27:40.143Z,20
2016-02-29T08:28:40.051Z,20
2016-02-29T08:29:40.053Z,20
2016-02-29T08:30:40.040Z,20
2016-02-29T08:31:40.044Z,25
2016-02-29T08:32:40.031Z,25
2016-02-29T08:33:40.034Z,25
2016-02-29T08:34:40.036Z,25
2016-02-29T08:35:40.039Z,25
2016-02-29T08:36:40.041Z,25
2016-02-29T08:37:40.028Z,25
2016-02-29T08:38:40.000Z,25
2016-02-29T08:39:39.987Z,25
2016-02-29T08:40:40.006Z,25
2016-02-29T08:41:40.008Z,25
2016-02-29T08:42:40.026Z,25
2016-02-29T08:43:40.028Z,25
2016-02-29T08:44:40.001Z,25
2016-02-29T08:45:40.425Z,25
2016-02-29T08:46:39.990Z,25
2016-02-29T08:47:39.977Z,30
2016-02-29T08:48:39.980Z,30
2016-02-29T08:49:39.982Z,30
2016-02-29T08:50:39.985Z,30
2016-02-29T08:51:40.206Z,30
2016-02-29T08:52:39.944Z,35
2016-02-29T08:53:39.963Z,35
2016-02-29T08:54:39.949Z,35
2016-02-29T08:55:39.968Z,35
2016-02-29T08:56:39.954Z,35
2016-02-29T08:57:39.988Z,35
2016-02-29T08:58:39.959Z,35
2016-02-29T08:59:39.978Z,35
2016-02-29T09:00:39.935Z,40
2016-02-29T09:01:39.952Z,40
2016-02-29T09:02:39.924Z,40
2016-02-29T09:03:39.942Z,40
2016-02-29T09:04:39.897Z,35
2016-02-29T09:05:39.592Z,35
2016-02-29T09:06:39.965Z,35
2016-02-29T09:07:39.936Z,30
2016-02-29T09:08:39.908Z,30
2016-02-29T09:09:39.894Z,35
2016-02-29T09:10:39.913Z,35
2016-02-29T09:11:39.884Z,35
2016-02-29T09:12:39.902Z,30
2016-02-29T09:13:39.858Z,30
2016-02-29T09:14:39.893Z,30
2016-02-29T09:15:39.864Z,30
2016-02-29T09:16:39.913Z,30
2016-02-29T09:17:39.868Z,30
2016-02-29T09:18:39.857Z,30
2016-02-29T09:19:39.875Z,25
2016-02-29T09:20:39.877Z,25
2016-02-29T09:21:39.880Z,25
2016-02-29T09:22:39.867Z,25
2016-02-29T09:23:39.870Z,30
2016-02-29T09:24:39.825Z,30
2016-02-29T09:25:39.859Z,25
2016-02-29T09:26:39.832Z,25
2016-02-29T09:27:39.834Z,25
2016-02-29T09:28:39.868Z,25
2016-02-29T09:29:39.823Z,25
2016-02-29T09:30:39.825Z,25
2016-02-29T09:31:39.813Z,25
2016-02-29T09:32:39.832Z,25
2016-02-29T09:33:39.803Z,25
2016-02-29T09:34:39.806Z,25
2016-02-29T09:35:39.808Z,25
2016-02-29T09:36:39.780Z,25
2016-02-29T09:37:39.626Z,25
2016-02-29T09:38:39.786Z,25
2016-02-29T09:39:39.788Z,25
2016-02-29T09:40:39.791Z,25
2016-02-29T09:41:39.777Z,25
2016-02-29T09:42:39.796Z,25
2016-02-29T09:43:39.782Z,25
2016-02-29T09:44:39.629Z,25
2016-02-29T09:45:39.757Z,25
2016-02-29T09:46:39.744Z,25
2016-02-29T10:16:22.230Z,40
2016-02-29T10:16:34.762Z,40
2016-02-29T10:17:34.795Z,40
2016-02-29T10:18:34.752Z,40
2016-02-29T10:19:34.801Z,40
2016-02-29T10:20:34.757Z,40
2016-02-29T10:21:34.775Z,40
2016-02-29T10:22:34.731Z,40
2016-02-29T10:23:34.780Z,40
2016-02-29T10:24:34.767Z,40
2016-02-29T10:25:34.754Z,40
2016-02-29T10:26:34.742Z,40
2016-02-29T10:27:34.713Z,40
2016-02-29T10:28:34.731Z,40
2016-02-29T10:29:34.734Z,40
2016-02-29T10:30:34.737Z,40
2016-02-29T10:31:33.974Z,40
2016-02-29T10:32:34.727Z,45
2016-02-29T10:33:34.713Z,45
2016-02-29T10:34:34.716Z,45
2016-02-29T10:35:34.688Z,45
2016-02-29T10:36:34.691Z,45
2016-02-29T10:37:34.708Z,45
2016-02-29T10:38:34.711Z,45
2016-02-29T10:39:34.714Z,45
2016-02-29T10:40:34.732Z,45
2016-02-29T10:41:34.704Z,50
2016-02-29T10:42:34.519Z,50
2016-02-29T10:43:34.677Z,50
2016-02-29T10:44:34.696Z,50
2016-02-29T10:45:34.668Z,45
2016-02-29T10:46:34.671Z,45
2016-02-29T10:47:34.673Z,45
2016-02-29T10:48:34.660Z,45
2016-02-29T10:49:34.538Z,50
2016-02-29T10:50:34.665Z,45
2016-02-29T10:51:34.699Z,45
2016-02-29T10:52:34.640Z,45
2016-02-29T10:53:34.642Z,50
2016-02-29T10:54:34.645Z,50
2016-02-29T10:55:34.664Z,50
2016-02-29T10:56:34.666Z,50
2016-02-29T10:57:34.669Z,45
2016-02-29T10:58:34.640Z,45
2016-02-29T10:59:34.658Z,50
2016-02-29T11:00:34.614Z,50
2016-02-29T11:01:34.617Z,50
2016-02-29T11:02:34.636Z,50
2016-02-29T11:03:34.622Z,50
2016-02-29T11:04:34.625Z,50
2016-02-29T11:05:34.617Z,50
2016-02-29T11:06:34.601Z,45
2016-02-29T11:07:34.608Z,45
2016-02-29T11:08:34.600Z,45
2016-02-29T11:09:34.545Z,45
2016-02-29T11:10:34.521Z,45
2016-02-29T11:11:34.529Z,45
2016-02-29T11:12:34.575Z,45
2016-02-29T11:13:34.512Z,45
2016-02-29T11:14:34.510Z,45
2016-02-29T11:15:34.510Z,45
2016-02-29T11:16:34.493Z,45
2016-02-29T11:17:34.510Z,45
2016-02-29T11:18:34.495Z,45
2016-02-29T11:19:34.466Z,45
2016-02-29T11:20:34.514Z,45
2016-02-29T11:21:34.469Z,40
2016-02-29T11:22:34.487Z,40
2016-02-29T11:23:34.457Z,40
2016-02-29T11:24:34.506Z,35
2016-02-29T11:25:34.462Z,35
2016-02-29T11:26:34.464Z,35
2016-02-29T11:27:34.435Z,35
2016-02-29T11:28:34.437Z,35
2016-02-29T11:29:34.471Z,35
2016-02-29T11:30:34.426Z,35
2016-02-29T11:31:34.429Z,35
2016-02-29T11:32:34.416Z,35
2016-02-29T11:33:34.419Z,35
2016-02-29T11:34:34.453Z,35
2016-02-29T11:35:34.439Z,35
2016-02-29T11:36:34.427Z,35
2016-02-29T11:37:34.399Z,35
2016-02-29T11:38:34.432Z,35
2016-02-29T11:39:34.435Z,35
2016-02-29T11:40:34.407Z,35
2016-02-29T11:41:34.409Z,35
2016-02-29T11:42:34.396Z,35
2016-02-29T11:43:34.383Z,35
2016-02-29T11:44:34.385Z,35
2016-02-29T11:45:34.388Z,35
2016-02-29T11:46:34.359Z,35
2016-02-29T11:47:34.394Z,35
2016-02-29T11:48:34.349Z,35
2016-02-29T11:49:34.352Z,35
2016-02-29T11:50:34.355Z,35
2016-02-29T11:51:34.342Z,35
2016-02-29T11:52:34.360Z,35
2016-02-29T11:53:34.363Z,35
2016-02-29T11:54:34.366Z,35
2016-02-29T11:55:34.337Z,35
2016-02-29T11:56:34.340Z,35
2016-02-29T11:57:34.327Z,35
2016-02-29T11:58:34.330Z,35
2016-02-29T11:59:34.364Z,35
2016-02-29T12:00:34.289Z,35
2016-02-29T12:01:34.322Z,35
2016-02-29T12:02:34.309Z,35
2016-02-29T12:03:34.311Z,40
2016-02-29T12:04:34.314Z,40
2016-02-29T12:05:34.317Z,35
2016-02-29T12:06:34.320Z,35
2016-02-29T12:07:34.308Z,35
2016-02-29T12:08:34.278Z,35
2016-02-29T12:09:34.313Z,35
2016-02-29T12:10:34.283Z,35
2016-02-29T12:11:34.286Z,35
2016-02-29T12:12:34.289Z,35
2016-02-29T12:13:34.277Z,35
2016-02-29T12:14:34.279Z,35
2016-02-29T12:15:34.266Z,35
2016-02-29T12:16:34.254Z,35
2016-02-29T12:17:34.257Z,35
2016-02-29T12:18:34.243Z,35
2016-02-29T12:19:34.246Z,35
2016-02-29T12:20:34.108Z,35
2016-02-29T12:21:34.267Z,35
2016-02-29T12:22:34.238Z,40
2016-02-29T12:23:34.413Z,40
2016-02-29T12:24:34.243Z,40
2016-02-29T12:25:34.215Z,35
2016-02-29T12:26:34.217Z,35
2016-02-29T12:27:34.236Z,35
2016-02-29T12:28:34.223Z,35
2016-02-29T12:29:34.225Z,35
2016-02-29T12:30:34.212Z,35
2016-02-29T12:31:34.200Z,35
2016-02-29T12:32:34.186Z,40
2016-02-29T12:33:34.190Z,35
2016-02-29T12:34:34.192Z,35
2016-02-29T12:35:34.180Z,35
2016-02-29T12:36:34.183Z,35
2016-02-29T12:37:34.169Z,35
2016-02-29T12:38:34.172Z,35
2016-02-29T12:39:34.174Z,35
2016-02-29T12:40:34.178Z,35
2016-02-29T12:41:34.164Z,35
2016-02-29T12:42:34.152Z,30
2016-02-29T12:43:34.216Z,30
2016-02-29T12:44:34.157Z,30
2016-02-29T12:45:34.159Z,30
2016-02-29T12:46:34.131Z,30
2016-02-29T12:47:34.133Z,30
2016-02-29T12:48:34.136Z,35
2016-02-29T12:49:34.123Z,35
2016-02-29T12:50:34.141Z,35
2016-02-29T12:51:34.144Z,35
2016-02-29T12:52:34.116Z,35
2016-02-29T12:53:34.103Z,35
2016-02-29T12:54:34.106Z,35
2016-02-29T12:55:34.093Z,35
2016-02-29T12:56:34.111Z,35
2016-02-29T12:57:34.114Z,35
2016-02-29T12:58:34.116Z,35
2016-02-29T12:59:34.087Z,35
2016-02-29T13:00:34.075Z,40
2016-02-29T13:01:34.109Z,40
2016-02-29T13:02:34.080Z,35
2016-02-29T13:03:34.083Z,35
2016-02-29T13:04:34.070Z,35
2016-02-29T13:05:34.048Z,35
2016-02-29T13:06:34.081Z,40
2016-02-29T13:07:34.068Z,40
2016-02-29T13:08:34.070Z,40
2016-02-29T13:09:34.089Z,40
2016-02-29T13:10:34.092Z,40
2016-02-29T13:11:34.032Z,40
2016-02-29T13:12:34.035Z,45
2016-02-29T13:13:33.975Z,45
2016-02-29T13:14:34.040Z,45
2016-02-29T13:15:34.027Z,45
2016-02-29T13:16:34.045Z,40
2016-02-29T13:17:33.767Z,40
2016-02-29T13:18:34.036Z,40
2016-02-29T13:19:34.007Z,40
2016-02-29T13:20:33.994Z,40
2016-02-29T13:21:34.090Z,40
2016-02-29T13:22:34.015Z,40
2016-02-29T13:23:34.018Z,40
2016-02-29T13:24:34.005Z,40
2016-02-29T13:25:33.992Z,40
2016-02-29T13:26:33.979Z,40
2016-02-29T13:27:33.982Z,40
2016-02-29T13:28:34.296Z,40
2016-02-29T13:29:33.971Z,40
2016-02-29T13:30:33.990Z,40
2016-02-29T13:31:33.993Z,40
2016-02-29T13:32:33.948Z,40
2016-02-29T13:33:34.013Z,35
2016-02-29T13:34:33.969Z,35
2016-02-29T13:35:33.956Z,35
2016-02-29T13:36:33.943Z,35
2016-02-29T13:37:33.946Z,35
2016-02-29T13:38:33.980Z,35
2016-02-29T13:39:34.170Z,35
2016-02-29T13:40:33.939Z,35
2016-02-29T13:41:33.894Z,35
2016-02-29T13:42:33.913Z,35
2016-02-29T13:43:33.915Z,35
2016-02-29T13:44:33.887Z,35
2016-02-29T13:45:33.905Z,35
2016-02-29T13:46:33.892Z,35
2016-02-29T13:47:33.878Z,35
2016-02-29T13:48:33.897Z,30
2016-02-29T13:49:33.883Z,30
2016-02-29T13:50:33.903Z,30
2016-02-29T13:51:33.858Z,30
2016-02-29T13:52:33.861Z,35
2016-02-29T13:53:33.863Z,30
2016-02-29T13:54:33.851Z,35
2016-02-29T13:55:33.870Z,35
2016-02-29T13:56:33.857Z,35
2016-02-29T13:57:33.875Z,30
2016-02-29T13:58:33.830Z,30
2016-02-29T13:59:33.833Z,30
2016-02-29T14:00:33.835Z,30
2016-02-29T14:01:33.855Z,30
2016-02-29T14:02:33.826Z,30
2016-02-29T14:03:33.891Z,30
2016-02-29T14:04:33.815Z,30
2016-02-29T14:05:33.802Z,30
2016-02-29T14:06:33.804Z,30
2016-02-29T14:07:33.792Z,25
2016-02-29T14:08:33.779Z,25
2016-02-29T14:09:33.798Z,25
2016-02-29T14:10:34.394Z,25
2016-02-29T14:11:33.787Z,25
2016-02-29T14:12:33.789Z,25
2016-02-29T14:13:33.792Z,25
2016-02-29T14:14:33.761Z,25
2016-02-29T14:15:33.748Z,25
2016-02-29T14:16:33.736Z,30
2016-02-29T14:17:33.754Z,30
2016-02-29T14:18:33.756Z,25
2016-02-29T14:19:33.759Z,30
2016-02-29T14:20:33.731Z,30
2016-02-29T14:21:33.734Z,25
2016-02-29T14:22:33.736Z,25
2016-02-29T14:23:33.739Z,25
2016-02-29T14:24:33.757Z,25
2016-02-29T14:25:33.760Z,25
2016-02-29T14:26:33.715Z,25
2016-02-29T14:27:33.578Z,25
2016-02-29T14:28:33.768Z,25
2016-02-29T14:29:33.708Z,25
2016-02-29T14:30:33.710Z,25
2016-02-29T14:31:33.885Z,25
2016-02-29T14:32:33.716Z,25
2016-02-29T14:33:33.704Z,25
2016-02-29T14:34:33.690Z,25
2016-02-29T14:35:33.677Z,25
2016-02-29T14:36:33.679Z,25
2016-02-29T14:37:33.683Z,20
2016-02-29T14:38:33.654Z,20
2016-02-29T14:39:33.688Z,20
2016-02-29T14:40:33.660Z,20
2016-02-29T14:41:33.646Z,20
2016-02-29T14:42:33.665Z,20
2016-02-29T14:43:33.668Z,20
2016-02-29T14:44:36.923Z,20
2016-02-29T14:45:33.642Z,20
2016-02-29T14:46:33.629Z,20
2016-02-29T14:47:33.616Z,20
2016-02-29T14:48:33.634Z,20
2016-02-29T14:49:33.637Z,20
2016-02-29T14:50:33.624Z,20
2016-02-29T14:51:33.611Z,20
2016-02-29T14:52:33.614Z,20
2016-02-29T14:53:33.632Z,20
2016-02-29T14:54:33.588Z,20
2016-02-29T14:55:33.605Z,20
2016-02-29T14:56:33.624Z,20
2016-02-29T14:57:33.611Z,20
2016-02-29T14:58:33.583Z,20